Time;durP1;ratioP1;P1;durP2;ratioP2;P2;SDS_P1;SDS_P2;PMS_P1;PMS_P2;Temp;Humidity;BMP_temperature;BMP_pressure;BME280_temperature;BME280_humidity;BME280_pressure;Samples;Min_cycle;Max_cycle;Signal;HPM_P1;HPM_P2
2022/04/11 00:01:11;;;;;;;8.70;1.70;;;;;;;4.03;81.74;101187.00;4981020;28;20048;-82
2022/04/11 00:03:40;;;;;;;3.72;1.33;;;;;;;4.02;81.74;101187.91;4999526;28;20053;-84
2022/04/11 00:06:10;;;;;;;7.38;1.70;;;;;;;4.00;81.95;101189.69;5044941;28;20071;-86
2022/04/11 00:08:38;;;;;;;11.68;3.80;;;;;;;3.98;81.64;101183.66;5033435;28;20069;-87
2022/04/11 00:11:10;;;;;;;8.27;1.50;;;;;;;3.96;82.35;101179.38;4999444;28;20129;-85
2022/04/11 00:13:38;;;;;;;8.75;1.58;;;;;;;3.97;81.88;101175.91;4998537;28;20041;-84
2022/04/11 00:16:07;;;;;;;8.18;1.85;;;;;;;3.91;82.78;101169.06;5013182;28;20522;-85
2022/04/11 00:18:37;;;;;;;15.98;2.70;;;;;;;3.89;82.84;101176.06;5016527;28;20091;-88
2022/04/11 00:21:06;;;;;;;6.15;1.60;;;;;;;3.89;83.29;101173.44;4998181;28;20149;-84
2022/04/11 00:23:35;;;;;;;10.68;1.75;;;;;;;3.86;83.17;101177.88;4998821;28;20056;-82
2022/04/11 00:30:07;;;;;;;11.82;2.25;;;;;;;3.76;84.32;101178.06;5010513;28;20042;-87
2022/04/11 00:32:41;;;;;;;6.85;2.40;;;;;;;3.84;84.16;101190.09;5002105;28;20056;-82
2022/04/11 00:36:00;;;;;;;6.57;1.85;;;;;;;3.80;84.65;101189.28;5002803;28;20120;-83
2022/04/11 00:38:27;;;;;;;6.97;1.65;;;;;;;3.75;84.82;101178.97;5018959;28;20060;-86
2022/04/11 00:40:54;;;;;;;6.97;1.67;;;;;;;3.65;85.29;101176.56;5033337;28;20140;-83
2022/04/11 00:43:37;;;;;;;5.32;1.50;;;;;;;3.60;85.33;101179.28;5018672;28;20057;-86
2022/04/11 00:46:06;;;;;;;11.32;1.90;;;;;;;3.59;85.95;101180.19;5003049;28;20052;-83
2022/04/11 00:48:34;;;;;;;6.88;1.77;;;;;;;3.55;86.04;101179.38;5031179;28;20053;-83
2022/04/11 00:51:12;;;;;;;6.18;1.73;;;;;;;3.54;86.67;101182.88;5028172;28;20052;-81
2022/04/11 00:53:47;;;;;;;10.45;1.70;;;;;;;3.55;87.09;101183.72;5024215;28;20571;-84
2022/04/11 00:56:16;;;;;;;4.30;1.67;;;;;;;3.51;87.17;101179.47;5018805;28;20087;-81
2022/04/11 00:58:50;;;;;;;10.35;1.90;;;;;;;3.47;87.14;101186.50;5015568;28;20096;-84
2022/04/11 01:01:17;;;;;;;8.38;1.60;;;;;;;3.43;87.82;101187.47;4994006;28;20216;-83
2022/04/11 01:03:46;;;;;;;11.55;1.80;;;;;;;3.39;88.15;101188.41;5031883;28;20076;-82
2022/04/11 01:06:40;;;;;;;9.93;1.98;;;;;;;3.35;88.69;101197.16;4990122;28;20037;-82
2022/04/11 01:09:08;;;;;;;8.38;1.88;;;;;;;3.27;89.06;101188.66;5014229;28;20055;-82
2022/04/11 01:11:37;;;;;;;5.88;1.80;;;;;;;3.25;89.30;101187.84;4999580;28;20113;-85
2022/04/11 01:14:07;;;;;;;11.00;1.75;;;;;;;3.20;89.42;101195.72;5012713;28;20064;-87
2022/04/11 01:16:35;;;;;;;5.43;1.65;;;;;;;3.18;89.51;101188.84;5014424;28;20045;-85
2022/04/11 01:19:07;;;;;;;6.55;1.40;;;;;;;3.12;89.99;101189.81;4979021;28;20104;-85
2022/04/11 01:21:36;;;;;;;8.82;2.10;;;;;;;3.07;90.39;101196.00;5010472;28;20480;-82
2022/04/11 01:24:05;;;;;;;6.65;1.70;;;;;;;3.05;90.14;101199.47;5004514;28;20504;-85
2022/04/11 01:26:33;;;;;;;6.03;1.55;;;;;;;2.99;90.91;101196.97;5012004;28;20076;-87
2022/04/11 01:29:02;;;;;;;10.02;1.80;;;;;;;2.94;91.09;101197.97;5010564;28;20050;-82
2022/04/11 01:31:33;;;;;;;9.10;2.55;;;;;;;2.93;91.41;101199.72;5010826;28;20141;-82
2022/04/11 01:34:05;;;;;;;10.52;1.60;;;;;;;2.95;91.42;101200.53;4984442;28;20043;-85
2022/04/11 01:36:40;;;;;;;10.00;1.77;;;;;;;2.93;91.31;101198.84;5011393;28;20054;-82
2022/04/11 01:39:24;;;;;;;8.88;1.98;;;;;;;2.85;91.91;101201.59;5013080;28;20048;-85
2022/04/11 01:41:54;;;;;;;15.40;2.15;;;;;;;2.84;92.29;101199.88;4997840;28;20061;-86
2022/04/11 01:44:23;;;;;;;7.05;1.83;;;;;;;2.79;92.58;101197.34;5011552;28;20042;-85
2022/04/11 01:46:52;;;;;;;7.00;1.73;;;;;;;2.78;92.50;101195.63;5020434;28;20045;-85
2022/04/11 01:49:27;;;;;;;11.80;1.83;;;;;;;2.79;92.13;101199.06;5000156;28;20042;-83
2022/04/11 01:51:57;;;;;;;8.13;1.98;;;;;;;2.77;92.61;101198.25;5016185;28;20033;-83
2022/04/11 01:54:28;;;;;;;9.05;2.03;;;;;;;2.73;92.77;101196.59;4997587;28;20128;-84
2022/04/11 01:56:58;;;;;;;11.63;1.70;;;;;;;2.72;92.81;101195.75;5005920;28;20061;-84
2022/04/11 01:59:30;;;;;;;5.75;1.50;;;;;;;2.71;92.72;101194.03;5017624;28;20049;-85
2022/04/11 02:02:01;;;;;;;8.65;1.80;;;;;;;2.66;93.17;101205.41;5020129;28;20437;-83
2022/04/11 02:04:32;;;;;;;11.00;2.00;;;;;;;2.65;93.22;101191.50;4994530;28;20046;-83
2022/04/11 02:07:06;;;;;;;9.20;2.10;;;;;;;2.67;92.79;101194.13;5027628;28;20049;-78
2022/04/11 02:09:39;;;;;;;7.53;1.60;;;;;;;2.66;92.74;101195.00;5008557;28;20222;-81
2022/04/11 02:12:09;;;;;;;12.45;2.00;;;;;;;2.65;92.87;101193.25;5007151;28;20133;-83
2022/04/11 02:14:37;;;;;;;15.38;2.35;;;;;;;2.59;93.50;101195.97;5012173;28;20045;-81
2022/04/11 02:17:04;;;;;;;9.73;1.98;;;;;;;2.52;93.18;101192.59;5050274;28;20118;-81
2022/04/11 02:19:33;;;;;;;7.65;1.85;;;;;;;2.49;93.47;101195.28;5016052;28;20117;-82
2022/04/11 02:22:00;;;;;;;7.60;2.08;;;;;;;2.47;93.78;101190.09;5014999;28;20042;-82
2022/04/11 02:24:29;;;;;;;6.63;1.77;;;;;;;2.44;93.89;101187.56;5032132;28;20070;-85
2022/04/11 02:26:58;;;;;;;11.13;2.55;;;;;;;2.49;93.76;101193.53;5013989;28;20044;-81
2022/04/11 02:29:26;;;;;;;13.73;2.35;;;;;;;2.47;93.56;101195.28;5013634;28;20065;-82
2022/04/11 02:31:53;;;;;;;10.93;2.42;;;;;;;2.47;93.71;101197.88;5033089;28;20021;-84
2022/04/11 02:34:21;;;;;;;10.55;2.05;;;;;;;2.46;93.54;101188.38;5027422;28;20029;-84
2022/04/11 02:36:48;;;;;;;10.77;1.98;;;;;;;2.47;93.69;101197.88;5014457;28;20108;-83
2022/04/11 02:39:18;;;;;;;15.40;2.33;;;;;;;2.44;93.55;101190.16;5027252;28;20136;-84
2022/04/11 02:41:47;;;;;;;5.68;2.10;;;;;;;2.46;93.17;101187.53;5019600;28;20118;-83
2022/04/11 02:44:17;;;;;;;10.50;2.78;;;;;;;2.41;93.48;101184.16;4994636;28;20084;-84
2022/04/11 02:46:45;;;;;;;7.15;1.95;;;;;;;2.42;93.71;101183.25;5006637;28;20048;-82
2022/04/11 02:49:12;;;;;;;13.05;2.20;;;;;;;2.44;93.51;101182.34;5038717;28;20068;-84
2022/04/11 02:51:40;;;;;;;5.03;1.25;;;;;;;2.45;93.76;101180.63;4997124;28;20493;-87
2022/04/11 02:54:11;;;;;;;10.57;1.80;;;;;;;2.39;93.55;101178.97;5000670;28;20057;-81
2022/04/11 02:56:38;;;;;;;6.43;1.92;;;;;;;2.34;93.49;101182.50;4999391;28;20041;-82
2022/04/11 02:59:59;;;;;;;12.63;1.98;;;;;;;2.29;94.19;101185.19;5030768;28;20068;-85
2022/04/11 03:02:30;;;;;;;4.75;1.80;;;;;;;2.33;94.30;101180.81;5031013;28;20369;-85
2022/04/11 03:05:02;;;;;;;9.02;1.70;;;;;;;2.32;94.33;101186.88;4996438;28;20436;-86
2022/04/11 03:07:31;;;;;;;9.30;2.00;;;;;;;2.31;94.66;101183.44;5030903;28;20068;-82
2022/04/11 03:10:02;;;;;;;7.47;1.90;;;;;;;2.33;94.53;101181.66;5012453;28;20107;-85
2022/04/11 03:12:31;;;;;;;5.72;1.27;;;;;;;2.31;95.12;101183.44;5029419;28;20103;-80
2022/04/11 03:14:58;;;;;;;10.50;1.73;;;;;;;2.28;94.94;101184.34;5010449;28;20202;-85
2022/04/11 03:17:29;;;;;;;6.65;1.60;;;;;;;2.26;95.04;101172.28;5013040;28;20049;-79
2022/04/11 03:19:57;;;;;;;6.18;1.48;;;;;;;2.26;95.49;101190.44;5016567;28;20041;-86
2022/04/11 03:22:31;;;;;;;4.32;1.75;;;;;;;2.19;95.76;101189.66;5018653;28;20041;-84
2022/04/11 03:24:59;;;;;;;7.95;1.65;;;;;;;2.18;96.07;101182.75;5011445;28;20052;-85
2022/04/11 03:27:26;;;;;;;12.48;3.38;;;;;;;2.25;95.99;101191.31;5015359;28;20080;-82
2022/04/11 03:29:54;;;;;;;7.07;2.13;;;;;;;2.21;95.89;101192.28;5005479;28;20067;-82
2022/04/11 03:32:23;;;;;;;10.45;1.80;;;;;;;2.24;95.92;101189.59;5024425;28;20048;-84
2022/04/11 03:34:51;;;;;;;8.38;2.35;;;;;;;2.21;96.18;101193.13;5038635;28;20064;-83
2022/04/11 03:37:20;;;;;;;9.07;1.83;;;;;;;2.21;96.12;101197.47;5001000;28;20059;-83
2022/04/11 03:39:48;;;;;;;8.20;2.17;;;;;;;2.19;96.55;101194.00;5006313;28;20051;-83
2022/04/11 03:42:17;;;;;;;5.45;2.08;;;;;;;2.18;96.59;101200.09;5024197;28;20040;-79
2022/04/11 03:44:46;;;;;;;6.03;2.38;;;;;;;2.11;96.87;101195.84;5021196;28;20041;-81
2022/04/11 03:47:16;;;;;;;6.45;1.70;;;;;;;2.10;97.33;101192.41;5006563;28;20045;-84
2022/04/11 03:49:44;;;;;;;10.73;2.10;;;;;;;2.07;97.20;101202.84;5015809;28;20135;-80
2022/04/11 03:52:11;;;;;;;13.73;2.13;;;;;;;2.07;97.42;101200.22;5031426;28;20052;-79
2022/04/11 03:54:39;;;;;;;12.48;3.88;;;;;;;2.07;97.57;101201.97;4995242;28;20128;-83
2022/04/11 03:57:12;;;;;;;8.50;2.03;;;;;;;2.02;97.41;101202.91;5010112;28;20046;-85
2022/04/11 03:59:39;;;;;;;11.45;2.42;;;;;;;1.99;97.67;101196.91;5003863;28;20168;-84
2022/04/11 04:02:08;;;;;;;6.57;1.90;;;;;;;2.00;97.80;101202.06;5016385;28;20038;-83
2022/04/11 04:05:08;;;;;;;10.98;2.08;;;;;;;1.99;98.17;101205.56;5001710;28;20128;-85
2022/04/11 04:07:36;;;;;;;8.63;1.85;;;;;;;1.99;98.15;101205.56;5029086;28;20079;-85
2022/04/11 04:10:05;;;;;;;9.55;1.95;;;;;;;1.96;98.38;101205.59;5039007;28;20518;-84
2022/04/11 04:12:34;;;;;;;8.10;2.08;;;;;;;1.99;98.35;101196.91;5004636;28;20169;-84
2022/04/11 04:15:03;;;;;;;10.15;3.30;;;;;;;1.97;98.29;101202.13;5017422;28;20264;-82
2022/04/11 04:17:31;;;;;;;6.00;2.10;;;;;;;2.01;98.20;101202.94;5016300;28;20077;-85
2022/04/11 04:20:06;;;;;;;6.78;2.42;;;;;;;1.97;98.58;101202.13;4999849;28;20087;-81
2022/04/11 04:22:37;;;;;;;8.73;2.53;;;;;;;2.01;98.71;101208.13;5001651;28;20518;-83
2022/04/11 04:25:05;;;;;;;5.38;2.30;;;;;;;2.05;98.41;101203.75;5009756;28;20069;-84
2022/04/11 04:27:34;;;;;;;5.80;2.08;;;;;;;2.06;99.03;101206.31;5016104;28;20045;-80
2022/04/11 04:30:02;;;;;;;7.88;1.70;;;;;;;2.07;99.05;101205.44;5013049;28;20057;-81
2022/04/11 04:32:30;;;;;;;7.25;2.00;;;;;;;2.07;99.00;101208.03;5013461;28;20564;-83
2022/04/11 04:35:00;;;;;;;8.95;2.45;;;;;;;2.06;98.93;101210.66;4996578;28;20076;-84
2022/04/11 04:37:28;;;;;;;5.97;2.30;;;;;;;2.13;99.31;101217.50;5014044;28;20045;-83
2022/04/11 04:39:59;;;;;;;7.28;2.35;;;;;;;2.13;98.93;101212.28;5012002;28;20045;-86
2022/04/11 04:42:27;;;;;;;5.97;1.85;;;;;;;2.19;98.95;101213.06;5013691;28;20053;-87
2022/04/11 04:44:55;;;;;;;14.52;2.65;;;;;;;2.22;98.43;101202.63;4996647;28;20476;-84
2022/04/11 04:47:25;;;;;;;7.63;2.25;;;;;;;2.24;98.57;101208.63;5034432;28;20218;-86
2022/04/11 04:49:53;;;;;;;10.30;2.70;;;;;;;2.26;98.47;101212.09;5023610;28;20052;-84
2022/04/11 04:52:21;;;;;;;5.55;2.70;;;;;;;2.28;98.19;101218.09;5031413;28;20033;-85
2022/04/11 04:54:48;;;;;;;10.30;2.25;;;;;;;2.33;98.32;101211.97;5042601;28;20060;-83
2022/04/11 04:57:17;;;;;;;11.32;3.22;;;;;;;2.34;97.33;101213.69;5007826;28;20045;-83
2022/04/11 04:59:44;;;;;;;7.22;2.33;;;;;;;2.38;97.85;101220.56;5025761;28;20041;-80
2022/04/11 05:02:19;;;;;;;6.20;2.47;;;;;;;2.37;97.87;101221.44;5042080;28;20125;-85
2022/04/11 05:04:48;;;;;;;12.10;2.42;;;;;;;2.37;97.86;101224.03;5025914;28;20132;-83
2022/04/11 05:07:15;;;;;;;9.25;2.58;;;;;;;2.41;98.02;101223.97;5020487;28;20052;-86
2022/04/11 05:09:43;;;;;;;8.70;2.38;;;;;;;2.44;97.02;101223.09;5001861;28;20041;-83
2022/04/11 05:12:10;;;;;;;8.55;2.30;;;;;;;2.51;96.97;101222.94;5038117;28;20045;-85
2022/04/11 05:14:37;;;;;;;18.25;3.90;;;;;;;2.57;96.74;101221.13;5033355;28;20120;-84
2022/04/11 05:17:08;;;;;;;12.05;4.25;;;;;;;2.65;95.88;101227.06;5039248;28;20481;-86
2022/04/11 05:19:36;;;;;;;10.95;2.83;;;;;;;2.68;95.38;101233.06;5029196;28;20125;-81
2022/04/11 05:22:06;;;;;;;8.93;2.45;;;;;;;2.72;95.39;101229.53;5040608;28;20045;-83
2022/04/11 05:24:34;;;;;;;8.43;2.60;;;;;;;2.81;94.85;101233.72;5022111;28;20045;-81
2022/04/11 05:27:02;;;;;;;8.48;2.60;;;;;;;2.88;94.71;101232.75;5021882;28;20056;-84
2022/04/11 05:29:29;;;;;;;8.38;2.35;;;;;;;2.88;93.68;101235.34;5016491;28;20084;-85
2022/04/11 05:31:58;;;;;;;6.07;2.90;;;;;;;2.93;93.59;101235.25;5024029;28;20061;-83
2022/04/11 05:34:25;;;;;;;8.25;2.40;;;;;;;2.98;93.40;101231.69;5023974;28;20123;-83
2022/04/11 05:36:53;;;;;;;10.02;2.65;;;;;;;3.04;93.16;101235.91;5005241;28;20606;-84
2022/04/11 05:39:21;;;;;;;4.95;2.30;;;;;;;3.05;93.01;101238.47;4998745;28;20129;-84
2022/04/11 05:41:50;;;;;;;11.70;2.95;;;;;;;3.14;92.27;101245.25;5012257;28;20051;-84
2022/04/11 05:44:18;;;;;;;8.32;2.63;;;;;;;3.17;91.66;101246.97;5010840;28;20058;-84
2022/04/11 05:46:52;;;;;;;18.98;3.15;;;;;;;3.27;91.73;101248.50;4996051;28;20078;-85
2022/04/11 05:49:20;;;;;;;11.10;2.80;;;;;;;3.36;91.17;101242.25;4994628;28;20487;-82
2022/04/11 05:51:50;;;;;;;8.07;2.83;;;;;;;3.44;90.38;101248.19;5009035;28;20084;-83
2022/04/11 05:54:19;;;;;;;5.40;2.83;;;;;;;3.58;89.56;101253.13;5020731;28;20194;-88
2022/04/11 05:56:47;;;;;;;5.05;2.60;;;;;;;3.56;89.17;101247.94;5009359;28;20103;-84
2022/04/11 05:59:21;;;;;;;8.27;2.97;;;;;;;3.65;88.29;101245.16;4998878;28;20072;-82
2022/04/11 06:01:49;;;;;;;8.50;2.85;;;;;;;3.78;88.26;101244.03;5032388;28;20107;-83
2022/04/11 06:04:19;;;;;;;9.75;2.75;;;;;;;3.89;87.37;101248.13;5013758;28;20125;-86
2022/04/11 06:06:50;;;;;;;4.88;2.92;;;;;;;4.00;86.94;101248.75;4984424;28;20345;-87
2022/04/11 06:09:18;;;;;;;7.78;2.70;;;;;;;4.04;84.75;101253.00;5013430;28;20493;-85
2022/04/11 06:11:47;;;;;;;8.15;3.13;;;;;;;4.02;84.42;101255.66;5014354;28;20459;-84
2022/04/11 06:14:15;;;;;;;7.43;2.55;;;;;;;4.14;83.52;101264.94;5011945;28;20416;-84
2022/04/11 06:16:45;;;;;;;10.52;2.63;;;;;;;4.22;83.40;101260.41;4993040;28;20060;-86
2022/04/11 06:19:13;;;;;;;10.82;2.92;;;;;;;4.27;82.33;101258.56;5009531;28;20053;-85
2022/04/11 06:21:40;;;;;;;8.10;2.10;;;;;;;4.40;81.79;101260.88;5002012;28;20045;-82
2022/04/11 06:24:07;;;;;;;9.55;2.30;;;;;;;4.45;79.97;101259.88;4992146;28;20050;-80
2022/04/11 06:26:35;;;;;;;10.15;2.78;;;;;;;4.51;78.59;101262.34;4994661;28;20068;-86
2022/04/11 06:29:09;;;;;;;9.50;3.58;;;;;;;4.66;79.10;101257.66;4994797;28;20056;-85
2022/04/11 06:31:38;;;;;;;6.68;2.20;;;;;;;4.69;76.11;101268.88;5019720;28;20045;-83
2022/04/11 06:34:07;;;;;;;8.00;3.70;;;;;;;4.81;75.80;101260.75;4984752;28;20072;-86
2022/04/11 06:36:36;;;;;;;9.90;2.38;;;;;;;4.91;74.24;101263.13;5012227;28;20062;-81
2022/04/11 06:39:07;;;;;;;6.65;2.20;;;;;;;5.00;74.18;101279.41;4999143;28;20049;-84
2022/04/11 06:41:34;;;;;;;9.90;2.65;;;;;;;5.06;72.44;101273.19;5013210;28;20053;-85
2022/04/11 06:44:05;;;;;;;5.05;1.67;;;;;;;5.18;72.09;101275.47;5035414;28;20583;-81
2022/04/11 06:46:38;;;;;;;9.68;2.33;;;;;;;5.19;70.11;101266.75;5012692;28;20107;-86
2022/04/11 06:49:06;;;;;;;10.70;2.35;;;;;;;5.30;69.02;101267.31;5009970;28;20481;-84
2022/04/11 06:51:34;;;;;;;6.57;1.98;;;;;;;5.41;68.99;101284.44;5031494;28;20046;-86
2022/04/11 06:54:02;;;;;;;6.38;2.42;;;;;;;5.35;65.91;101267.19;5011687;28;20048;-80
2022/04/11 06:56:30;;;;;;;3.35;1.52;;;;;;;5.54;66.80;101272.78;5010290;28;20066;-85
2022/04/11 06:58:58;;;;;;;9.20;2.10;;;;;;;5.62;66.29;101262.94;5007572;28;20056;-87
2022/04/11 07:01:25;;;;;;;6.45;1.88;;;;;;;5.79;66.11;101268.56;4997566;28;20072;-82
2022/04/11 07:03:55;;;;;;;7.82;1.90;;;;;;;5.83;65.12;101271.94;4996197;28;20049;-83
2022/04/11 07:06:22;;;;;;;9.40;2.65;;;;;;;5.95;63.48;101278.63;4981189;28;20084;-84
2022/04/11 07:08:50;;;;;;;12.85;2.30;;;;;;;6.03;63.73;101274.00;5012210;28;20041;-81
2022/04/11 07:11:17;;;;;;;9.18;2.05;;;;;;;5.95;63.14;101283.84;5001548;28;20131;-84
2022/04/11 07:13:46;;;;;;;4.45;1.88;;;;;;;5.91;63.47;101280.41;5007494;28;20063;-88
2022/04/11 07:16:14;;;;;;;8.82;1.70;;;;;;;5.86;62.64;101284.94;4995096;28;20044;-85
2022/04/11 07:18:42;;;;;;;5.82;1.60;;;;;;;5.87;62.50;101283.16;5011723;28;20045;-87
2022/04/11 07:21:11;;;;;;;9.73;1.60;;;;;;;6.01;62.33;101278.41;5012372;28;20458;-85
2022/04/11 07:23:41;;;;;;;10.95;2.08;;;;;;;6.16;62.27;101283.19;4994083;28;20037;-87
2022/04/11 07:26:09;;;;;;;7.13;1.85;;;;;;;6.40;61.21;101286.81;5005227;28;20116;-84
2022/04/11 07:28:40;;;;;;;9.57;2.33;;;;;;;6.47;60.99;101285.72;5017267;28;20091;-82
2022/04/11 07:31:09;;;;;;;3.78;1.92;;;;;;;6.51;60.27;101283.84;5025243;28;20120;-85
2022/04/11 07:33:37;;;;;;;5.40;1.65;;;;;;;6.45;59.82;101284.91;5021519;28;20219;-83
2022/04/11 07:36:05;;;;;;;9.07;1.60;;;;;;;6.43;59.00;101294.56;5028111;28;20100;-82
2022/04/11 07:38:34;;;;;;;3.60;1.60;;;;;;;6.43;59.18;101298.94;5026954;28;20468;-84
2022/04/11 07:41:02;;;;;;;5.65;1.60;;;;;;;6.51;58.61;101295.19;5024298;28;20049;-80
2022/04/11 07:43:31;;;;;;;5.10;1.92;;;;;;;6.51;59.10;101284.72;5023943;28;20061;-83
2022/04/11 07:46:01;;;;;;;6.40;1.63;;;;;;;6.68;58.09;101278.94;5013993;28;20097;-82
2022/04/11 07:48:29;;;;;;;6.57;1.55;;;;;;;6.84;57.59;101276.66;5021785;28;20037;-84
2022/04/11 07:50:56;;;;;;;4.63;1.70;;;;;;;7.00;58.38;101272.66;4988505;28;20049;-82
2022/04/11 07:53:24;;;;;;;6.05;1.50;;;;;;;7.16;56.60;101275.63;4991634;28;20045;-84
2022/04/11 07:55:51;;;;;;;4.00;1.48;;;;;;;7.31;55.80;101280.31;5000220;28;20152;-83
2022/04/11 07:58:19;;;;;;;4.43;1.88;;;;;;;7.32;56.39;101275.94;5004637;28;20057;-80
2022/04/11 08:00:51;;;;;;;5.93;2.28;;;;;;;7.38;56.10;101285.31;5006157;28;20509;-82
2022/04/11 08:03:19;;;;;;;2.80;1.23;;;;;;;7.32;53.93;101278.53;5023544;28;20064;-82
2022/04/11 08:05:47;;;;;;;5.78;1.27;;;;;;;7.38;53.83;101277.47;5020516;28;20576;-81
2022/04/11 08:08:15;;;;;;;4.80;1.60;;;;;;;7.54;55.20;101270.78;5006702;28;20053;-84
2022/04/11 08:10:42;;;;;;;5.95;1.55;;;;;;;7.71;53.46;101276.28;5038262;28;20088;-85
2022/04/11 08:13:13;;;;;;;5.45;2.05;;;;;;;7.74;52.28;101280.53;5025333;28;20045;-84
2022/04/11 08:15:42;;;;;;;6.60;1.30;;;;;;;7.85;51.77;101281.84;5002844;28;20049;-85
2022/04/11 08:18:09;;;;;;;5.55;1.20;;;;;;;7.83;50.81;101278.44;5027558;28;20033;-84
2022/04/11 08:20:37;;;;;;;4.03;1.33;;;;;;;7.99;51.37;101276.09;5014146;28;20060;-86
2022/04/11 08:23:06;;;;;;;4.57;1.30;;;;;;;7.91;50.77;101279.91;5006809;28;20041;-86
2022/04/11 08:25:36;;;;;;;3.78;1.20;;;;;;;7.96;51.05;101281.44;5021231;28;20051;-86
2022/04/11 08:28:07;;;;;;;3.33;1.45;;;;;;;8.30;50.54;101281.03;5013200;28;20059;-84
2022/04/11 08:30:37;;;;;;;5.57;1.50;;;;;;;8.31;49.93;101287.97;5005110;28;20089;-85
2022/04/11 08:33:06;;;;;;;4.97;1.92;;;;;;;8.38;49.35;101290.41;5016085;28;20053;-85
2022/04/11 08:35:36;;;;;;;8.63;1.27;;;;;;;8.31;48.57;101274.84;5027224;28;20037;-86
2022/04/11 08:38:04;;;;;;;3.30;0.90;;;;;;;8.31;48.70;101280.09;5024810;28;20380;-85
2022/04/11 08:40:32;;;;;;;5.53;1.20;;;;;;;8.28;47.45;101279.34;4998081;28;20110;-83
2022/04/11 08:43:05;;;;;;;5.13;1.60;;;;;;;8.38;47.89;101279.91;5005603;28;20051;-83
2022/04/11 08:45:33;;;;;;;4.53;1.10;;;;;;;8.47;47.75;101271.69;5023297;28;20041;-82
2022/04/11 08:48:01;;;;;;;5.40;1.42;;;;;;;8.48;47.33;101289.13;5006719;28;20077;-80
2022/04/11 08:50:30;;;;;;;5.68;1.08;;;;;;;8.54;47.27;101281.84;5017878;28;20077;-84
2022/04/11 08:53:00;;;;;;;3.85;0.93;;;;;;;8.71;47.66;101285.56;4978557;28;20041;-86
2022/04/11 08:55:31;;;;;;;3.58;1.20;;;;;;;8.74;46.00;101275.81;5006235;28;20049;-86
2022/04/11 08:58:00;;;;;;;5.05;1.20;;;;;;;8.80;44.62;101277.31;5012661;28;20033;-84
2022/04/11 09:00:31;;;;;;;3.15;0.90;;;;;;;8.62;44.99;101282.41;5019810;28;20132;-85
2022/04/11 09:03:01;;;;;;;4.55;1.08;;;;;;;8.66;44.88;101271.78;4988749;28;20037;-86
2022/04/11 09:05:34;;;;;;;9.18;1.50;;;;;;;8.70;44.21;101278.63;5020216;28;20396;-85
2022/04/11 09:08:02;;;;;;;2.33;1.30;;;;;;;8.85;44.46;101272.72;5025472;28;20453;-83
2022/04/11 09:10:35;;;;;;;4.22;1.05;;;;;;;8.57;45.08;101273.00;5009420;28;20038;-85
2022/04/11 09:13:08;;;;;;;2.95;1.20;;;;;;;8.87;44.74;101263.00;4988753;28;20120;-85
2022/04/11 09:15:39;;;;;;;2.90;1.48;;;;;;;8.83;44.26;101262.31;4989046;28;20082;-83
2022/04/11 09:18:06;;;;;;;5.07;1.42;;;;;;;8.98;44.21;101260.81;5043283;28;20041;-83
2022/04/11 09:20:34;;;;;;;4.38;1.08;;;;;;;9.23;42.76;101254.50;5013472;28;20075;-85
2022/04/11 09:23:17;;;;;;;4.35;1.67;;;;;;;9.15;42.67;101267.97;5020128;28;20242;-84
2022/04/11 09:25:44;;;;;;;3.72;1.02;;;;;;;9.20;43.70;101265.16;4982908;28;20121;-84
2022/04/11 09:28:12;;;;;;;2.78;1.25;;;;;;;9.10;42.13;101268.16;5003864;28;20060;-85
2022/04/11 09:30:45;;;;;;;2.63;1.48;;;;;;;9.33;42.96;101263.69;5003381;28;20128;-85
2022/04/11 09:33:16;;;;;;;6.95;1.45;;;;;;;9.38;42.82;101259.94;4999228;28;20159;-85
2022/04/11 09:35:47;;;;;;;3.53;1.02;;;;;;;9.49;42.16;101258.63;4994470;28;20038;-81
2022/04/11 09:38:19;;;;;;;3.85;1.20;;;;;;;9.59;40.64;101260.78;5000119;28;20056;-84
2022/04/11 09:40:49;;;;;;;4.43;0.90;;;;;;;9.74;40.07;101268.91;4994341;28;20125;-83
2022/04/11 09:43:29;;;;;;;6.38;1.10;;;;;;;9.89;40.80;101255.03;5014144;28;20053;-84
2022/04/11 09:46:00;;;;;;;2.55;0.95;;;;;;;9.86;38.54;101253.41;5028067;28;20091;-81
2022/04/11 09:48:35;;;;;;;1.63;0.95;;;;;;;9.96;38.45;101251.22;4994141;28;20477;-87
2022/04/11 09:51:09;;;;;;;1.90;0.90;;;;;;;10.09;37.29;101248.88;4998980;28;20117;-83
2022/04/11 09:53:36;;;;;;;6.05;1.00;;;;;;;10.23;36.92;101250.84;4992606;28;20076;-84
2022/04/11 09:56:06;;;;;;;2.35;0.90;;;;;;;10.56;37.06;101246.59;5026885;28;20068;-81
2022/04/11 09:58:35;;;;;;;2.30;0.90;;;;;;;10.76;37.18;101244.75;5028124;28;20129;-86
2022/04/11 10:01:04;;;;;;;6.10;1.20;;;;;;;11.01;36.52;101245.25;4994758;28;20068;-83
2022/04/11 10:03:32;;;;;;;3.80;1.10;;;;;;;10.86;36.16;101240.78;5029326;28;20059;-85
2022/04/11 10:06:01;;;;;;;8.65;1.08;;;;;;;10.74;36.16;101234.31;5005466;28;20041;-87
2022/04/11 10:08:31;;;;;;;4.60;1.42;;;;;;;10.89;36.44;101253.75;5002198;28;20068;-82
2022/04/11 10:10:59;;;;;;;2.80;1.27;;;;;;;11.00;35.53;101246.19;5021648;28;20052;-84
2022/04/11 10:13:26;;;;;;;2.72;1.10;;;;;;;10.84;35.71;101250.50;4995756;28;20059;-87
2022/04/11 10:15:54;;;;;;;3.42;1.38;;;;;;;11.02;35.91;101243.47;5047898;28;20056;-85
2022/04/11 10:18:25;;;;;;;2.60;1.00;;;;;;;11.32;35.46;101243.69;5032077;28;20065;-81
2022/04/11 10:20:59;;;;;;;3.40;1.30;;;;;;;11.19;34.98;101232.06;5020973;28;20164;-83
2022/04/11 10:23:51;;;;;;;4.05;1.08;;;;;;;11.38;36.39;101233.66;4986173;28;20045;-86
2022/04/11 10:26:19;;;;;;;5.50;1.60;;;;;;;11.73;34.65;101236.19;5018609;28;20140;-87
2022/04/11 10:28:51;;;;;;;2.95;1.45;;;;;;;11.71;34.24;101229.28;5001912;28;20137;-84
2022/04/11 10:31:35;;;;;;;7.22;1.23;;;;;;;11.70;35.73;101235.50;5002659;28;20053;-82
2022/04/11 10:34:02;;;;;;;4.22;1.88;;;;;;;11.92;34.84;101230.81;4996646;28;20049;-82
2022/04/11 10:36:55;;;;;;;2.70;1.10;;;;;;;12.07;35.29;101231.78;5023153;28;20807;-85
2022/04/11 10:39:24;;;;;;;3.03;1.17;;;;;;;12.10;34.65;101221.03;4995895;28;20366;-82
2022/04/11 10:41:55;;;;;;;4.60;1.63;;;;;;;11.90;34.63;101214.22;5001909;28;20052;-83
2022/04/11 10:44:32;;;;;;;2.80;1.15;;;;;;;11.87;34.95;101230.22;5012310;28;20161;-87
2022/04/11 10:47:07;;;;;;;10.45;1.63;;;;;;;12.12;34.39;101224.44;5016669;28;20216;-85
2022/04/11 10:49:58;;;;;;;4.53;1.75;;;;;;;11.62;34.75;101215.69;5030463;28;20041;-85
2022/04/11 10:52:29;;;;;;;6.80;1.30;;;;;;;12.20;34.24;101227.47;5011787;28;20132;-83
2022/04/11 10:55:17;;;;;;;3.65;1.48;;;;;;;12.37;33.23;101223.91;4998055;28;20044;-87
2022/04/11 10:57:46;;;;;;;7.28;1.60;;;;;;;12.37;33.34;101216.81;5015052;28;20088;-82
2022/04/11 11:00:24;;;;;;;5.70;1.23;;;;;;;12.16;33.15;101225.97;5002325;28;20052;-83
2022/04/11 11:02:53;;;;;;;2.40;1.33;;;;;;;12.14;33.65;101217.28;5002179;28;20076;-84
2022/04/11 11:05:42;;;;;;;6.50;1.42;;;;;;;12.16;33.59;101212.78;5043642;28;20588;-85
2022/04/11 11:08:20;;;;;;;8.77;1.42;;;;;;;11.98;33.69;101229.59;4999331;28;20048;-85
2022/04/11 11:10:54;;;;;;;3.70;1.10;;;;;;;11.50;34.23;101223.41;5000317;28;20114;-84
2022/04/11 11:13:42;;;;;;;4.50;1.23;;;;;;;11.74;34.77;101206.25;5001389;28;20041;-86
2022/04/11 11:16:12;;;;;;;11.10;1.40;;;;;;;11.87;34.47;101231.06;5000637;28;20040;-86
2022/04/11 11:18:50;;;;;;;3.88;1.40;;;;;;;11.61;34.33;101208.69;4995462;28;20059;-86
2022/04/11 11:21:27;;;;;;;5.68;2.08;;;;;;;11.31;34.56;101202.44;5014839;28;20104;-85
2022/04/11 11:24:08;;;;;;;2.92;1.35;;;;;;;11.30;35.24;101198.97;5022462;28;20445;-85
2022/04/11 11:26:45;;;;;;;3.72;1.20;;;;;;;11.33;35.40;101203.19;4999246;28;20583;-85
2022/04/11 11:29:14;;;;;;;3.03;1.25;;;;;;;11.26;34.54;101192.16;5014956;28;20033;-84
2022/04/11 11:31:42;;;;;;;2.15;1.20;;;;;;;11.30;34.86;101198.06;4999196;28;20045;-83
2022/04/11 11:34:12;;;;;;;6.32;1.27;;;;;;;11.45;34.40;101191.16;4989335;28;20461;-87
2022/04/11 11:36:42;;;;;;;4.32;1.48;;;;;;;11.49;34.37;101198.81;5020514;28;20091;-85
2022/04/11 11:39:12;;;;;;;5.15;1.42;;;;;;;11.70;34.73;101198.59;4997350;28;20381;-80
2022/04/11 11:41:42;;;;;;;6.38;1.42;;;;;;;12.09;34.21;101180.59;5005868;28;20037;-84
2022/04/11 11:44:10;;;;;;;2.53;1.50;;;;;;;12.02;34.48;101192.44;5015596;28;20041;-86
2022/04/11 11:46:51;;;;;;;6.03;1.42;;;;;;;12.08;33.84;101186.81;5013068;28;20072;-84
2022/04/11 11:49:25;;;;;;;4.85;1.00;;;;;;;12.26;34.56;101186.72;5047061;28;20046;-80